Terminal Aerodrome Forecast
Issued by NWS

Home | Current Version | Previous Version | Text Only | Print | Product List | Glossary On
Versions: 1 2 3 4 5 6 7 8 9 10 11 12 13
233
FTUS43 KEAX 200520
TAFMKC
TAF
KMKC 200520Z 2006/2106 19013KT P6SM SCT250 WS020/20040KT
     FM201400 21010KT P6SM SCT030 BKN100
     FM201700 22008KT P6SM BKN040=

USA.gov is the U.S. government's official web portal to all federal, state and local government web resources and services.